Auburn, Indiana
Current Conditions -  °F | °C
As of 9:35 AM on Saturday 22 Nov 2014 (Local Time) from KGWB Reporting Station
Moderate Rain Moderate Rain  
Wind Chill: 33°   Ceiling: 4200
Heat Index: 37°   Visibility: 5mi
Dew Point: 36°   Wind: 6mph
Humidity: 93%   Direction: 210°SSW
Pressure: 30.12"   Gusts: NA
Location:  41.37°N, 85.05°W
Report Text: KGWB 221435Z AUTO 21005KT 5SM RA BKN042 BKN049 OVC065 03/02 A3012 RMK AO2
Loading
Personal Weather Stations






























Interactive Weather Map New forecast layout! Learn more

10-Day Weather Forecast

Advertisements
Track Severe Weather on mobile